Revere, North Dakota
Current Conditions -  °F | °C
As of 12:35 PM on Thursday 30 Oct 2014 (Local Time) from KBAC Reporting Station
Unknown Precip Unknown Precip  
Wind Chill: 25°   Ceiling: 1500
Heat Index: 36°   Visibility: 10mi
Dew Point: 36°   Wind: 18mph
Humidity: 100%   Direction: 360°N
Pressure: 30.29"   Gusts: 25mph
Location:  47.2843°N, 98.1073°W
Report Text: KBAC 301735Z AUTO 36016G22KT 10SM UP OVC015 02/02 A3029 RMK AO2
Loading
Personal Weather Stations






























Interactive Weather Map
Tropical Storm Tracking
New forecast layout! Learn more

10-Day Weather Forecast

Advertisements
Track Severe Weather on mobile